sensor_id;sensor_type;location;lat;lon;timestamp;temperature;humidity
2226;DHT22;1119;48.288;8.726;2024-02-26T00:01:02;7.60;59.40
2226;DHT22;1119;48.288;8.726;2024-02-26T00:03:30;7.60;59.30
2226;DHT22;1119;48.288;8.726;2024-02-26T00:06:01;7.70;58.00
2226;DHT22;1119;48.288;8.726;2024-02-26T00:08:28;7.60;57.60
2226;DHT22;1119;48.288;8.726;2024-02-26T00:10:56;7.60;57.70
2226;DHT22;1119;48.288;8.726;2024-02-26T00:13:23;7.60;58.40
2226;DHT22;1119;48.288;8.726;2024-02-26T00:15:50;7.60;58.50
2226;DHT22;1119;48.288;8.726;2024-02-26T00:18:18;7.50;58.40
2226;DHT22;1119;48.288;8.726;2024-02-26T00:20:46;7.60;58.30
2226;DHT22;1119;48.288;8.726;2024-02-26T00:23:15;7.60;58.30
2226;DHT22;1119;48.288;8.726;2024-02-26T00:25:42;7.50;58.50
2226;DHT22;1119;48.288;8.726;2024-02-26T00:28:10;7.50;58.70
2226;DHT22;1119;48.288;8.726;2024-02-26T00:30:39;7.50;58.70
2226;DHT22;1119;48.288;8.726;2024-02-26T00:33:06;7.50;58.80
2226;DHT22;1119;48.288;8.726;2024-02-26T00:35:33;7.50;58.80
2226;DHT22;1119;48.288;8.726;2024-02-26T00:38:02;7.40;59.50
2226;DHT22;1119;48.288;8.726;2024-02-26T00:40:30;7.40;59.90
2226;DHT22;1119;48.288;8.726;2024-02-26T00:42:57;7.40;59.60
2226;DHT22;1119;48.288;8.726;2024-02-26T00:45:24;7.40;59.60
2226;DHT22;1119;48.288;8.726;2024-02-26T00:47:51;7.40;59.60
2226;DHT22;1119;48.288;8.726;2024-02-26T00:50:19;7.40;59.40
2226;DHT22;1119;48.288;8.726;2024-02-26T00:52:47;7.50;59.50
2226;DHT22;1119;48.288;8.726;2024-02-26T00:55:15;7.50;59.80
2226;DHT22;1119;48.288;8.726;2024-02-26T00:57:43;7.50;61.50
2226;DHT22;1119;48.288;8.726;2024-02-26T01:00:11;7.50;61.90
2226;DHT22;1119;48.288;8.726;2024-02-26T01:02:39;7.50;62.30
2226;DHT22;1119;48.288;8.726;2024-02-26T01:05:07;7.40;63.20
2226;DHT22;1119;48.288;8.726;2024-02-26T01:07:36;7.50;63.60
2226;DHT22;1119;48.288;8.726;2024-02-26T01:10:03;7.50;62.40
2226;DHT22;1119;48.288;8.726;2024-02-26T01:12:33;7.50;60.40
2226;DHT22;1119;48.288;8.726;2024-02-26T01:15:00;7.40;60.80
2226;DHT22;1119;48.288;8.726;2024-02-26T01:17:28;7.30;61.70
2226;DHT22;1119;48.288;8.726;2024-02-26T01:19:56;7.30;62.20
2226;DHT22;1119;48.288;8.726;2024-02-26T01:22:23;7.30;62.20
2226;DHT22;1119;48.288;8.726;2024-02-26T01:24:50;7.30;62.60
2226;DHT22;1119;48.288;8.726;2024-02-26T01:27:18;7.40;62.30
2226;DHT22;1119;48.288;8.726;2024-02-26T01:29:46;7.40;62.40
2226;DHT22;1119;48.288;8.726;2024-02-26T01:32:13;7.40;63.30
2226;DHT22;1119;48.288;8.726;2024-02-26T01:34:41;7.30;65.80
2226;DHT22;1119;48.288;8.726;2024-02-26T01:37:08;7.20;68.20
2226;DHT22;1119;48.288;8.726;2024-02-26T01:39:35;7.20;68.20
2226;DHT22;1119;48.288;8.726;2024-02-26T01:42:03;7.20;67.30
2226;DHT22;1119;48.288;8.726;2024-02-26T01:44:30;7.20;67.10
2226;DHT22;1119;48.288;8.726;2024-02-26T01:46:59;7.20;66.90
2226;DHT22;1119;48.288;8.726;2024-02-26T01:49:29;7.20;67.40
2226;DHT22;1119;48.288;8.726;2024-02-26T01:51:57;7.20;67.80
2226;DHT22;1119;48.288;8.726;2024-02-26T01:54:25;7.20;68.50
2226;DHT22;1119;48.288;8.726;2024-02-26T01:56:53;7.10;68.10
2226;DHT22;1119;48.288;8.726;2024-02-26T01:59:20;7.10;69.80
2226;DHT22;1119;48.288;8.726;2024-02-26T02:01:54;7.00;70.00
2226;DHT22;1119;48.288;8.726;2024-02-26T02:04:24;6.90;69.80
2226;DHT22;1119;48.288;8.726;2024-02-26T02:06:52;6.80;70.30
2226;DHT22;1119;48.288;8.726;2024-02-26T02:09:19;6.80;70.70
2226;DHT22;1119;48.288;8.726;2024-02-26T02:11:48;6.70;71.60
2226;DHT22;1119;48.288;8.726;2024-02-26T02:14:16;6.70;73.00
2226;DHT22;1119;48.288;8.726;2024-02-26T02:16:43;6.60;71.80
2226;DHT22;1119;48.288;8.726;2024-02-26T02:19:10;6.60;70.70
2226;DHT22;1119;48.288;8.726;2024-02-26T02:21:39;6.60;73.30
2226;DHT22;1119;48.288;8.726;2024-02-26T02:24:06;6.70;72.90
2226;DHT22;1119;48.288;8.726;2024-02-26T02:26:34;6.80;73.50
2226;DHT22;1119;48.288;8.726;2024-02-26T02:29:02;6.70;73.50
2226;DHT22;1119;48.288;8.726;2024-02-26T02:31:30;6.70;75.70
2226;DHT22;1119;48.288;8.726;2024-02-26T02:33:58;6.70;75.70
2226;DHT22;1119;48.288;8.726;2024-02-26T02:36:25;6.70;75.20
2226;DHT22;1119;48.288;8.726;2024-02-26T02:38:54;6.80;75.80
2226;DHT22;1119;48.288;8.726;2024-02-26T02:41:21;6.80;76.80
2226;DHT22;1119;48.288;8.726;2024-02-26T02:43:48;6.80;74.20
2226;DHT22;1119;48.288;8.726;2024-02-26T02:46:15;6.70;73.00
2226;DHT22;1119;48.288;8.726;2024-02-26T02:48:43;6.80;74.90
2226;DHT22;1119;48.288;8.726;2024-02-26T02:51:10;6.80;75.30
2226;DHT22;1119;48.288;8.726;2024-02-26T02:53:37;6.80;74.90
2226;DHT22;1119;48.288;8.726;2024-02-26T02:56:06;6.80;75.30
2226;DHT22;1119;48.288;8.726;2024-02-26T02:58:33;6.80;76.10
2226;DHT22;1119;48.288;8.726;2024-02-26T03:01:00;6.90;76.10
2226;DHT22;1119;48.288;8.726;2024-02-26T03:03:28;7.00;76.10
2226;DHT22;1119;48.288;8.726;2024-02-26T03:05:55;7.00;75.60
2226;DHT22;1119;48.288;8.726;2024-02-26T03:08:23;7.00;75.70
2226;DHT22;1119;48.288;8.726;2024-02-26T03:10:51;7.10;75.80
2226;DHT22;1119;48.288;8.726;2024-02-26T03:13:20;7.10;74.90
2226;DHT22;1119;48.288;8.726;2024-02-26T03:15:47;7.10;73.60
2226;DHT22;1119;48.288;8.726;2024-02-26T03:18:14;7.10;73.60
2226;DHT22;1119;48.288;8.726;2024-02-26T03:20:42;7.30;73.70
2226;DHT22;1119;48.288;8.726;2024-02-26T03:23:09;7.20;73.20
2226;DHT22;1119;48.288;8.726;2024-02-26T03:25:38;7.30;73.20
2226;DHT22;1119;48.288;8.726;2024-02-26T03:28:06;7.30;73.00
2226;DHT22;1119;48.288;8.726;2024-02-26T03:30:34;7.40;73.10
2226;DHT22;1119;48.288;8.726;2024-02-26T03:33:02;7.30;72.50
2226;DHT22;1119;48.288;8.726;2024-02-26T03:35:29;7.10;74.00
2226;DHT22;1119;48.288;8.726;2024-02-26T03:37:56;7.00;77.00
2226;DHT22;1119;48.288;8.726;2024-02-26T03:40:23;6.90;77.00
2226;DHT22;1119;48.288;8.726;2024-02-26T03:42:51;6.80;77.00
2226;DHT22;1119;48.288;8.726;2024-02-26T03:45:20;6.80;78.50
2226;DHT22;1119;48.288;8.726;2024-02-26T03:47:48;6.80;80.80
2226;DHT22;1119;48.288;8.726;2024-02-26T03:50:16;6.80;83.10
2226;DHT22;1119;48.288;8.726;2024-02-26T03:52:43;6.70;84.90
2226;DHT22;1119;48.288;8.726;2024-02-26T03:55:10;6.70;88.20
2226;DHT22;1119;48.288;8.726;2024-02-26T03:57:37;6.80;88.50
2226;DHT22;1119;48.288;8.726;2024-02-26T04:00:05;6.80;89.00
2226;DHT22;1119;48.288;8.726;2024-02-26T04:02:36;6.80;88.50
2226;DHT22;1119;48.288;8.726;2024-02-26T04:05:09;6.90;89.80
2226;DHT22;1119;48.288;8.726;2024-02-26T04:07:37;6.90;89.40
2226;DHT22;1119;48.288;8.726;2024-02-26T04:10:08;6.90;90.60
2226;DHT22;1119;48.288;8.726;2024-02-26T04:12:38;6.90;91.50
2226;DHT22;1119;48.288;8.726;2024-02-26T04:15:07;6.90;91.40
2226;DHT22;1119;48.288;8.726;2024-02-26T04:17:36;6.90;91.70
2226;DHT22;1119;48.288;8.726;2024-02-26T04:20:07;7.00;91.50
2226;DHT22;1119;48.288;8.726;2024-02-26T04:22:35;7.10;91.40
2226;DHT22;1119;48.288;8.726;2024-02-26T04:25:02;7.10;90.60
2226;DHT22;1119;48.288;8.726;2024-02-26T04:27:30;7.10;90.40
2226;DHT22;1119;48.288;8.726;2024-02-26T04:29:57;7.20;90.60
2226;DHT22;1119;48.288;8.726;2024-02-26T04:32:24;7.20;90.20
2226;DHT22;1119;48.288;8.726;2024-02-26T04:34:52;7.20;90.20
2226;DHT22;1119;48.288;8.726;2024-02-26T04:37:20;7.20;90.20
2226;DHT22;1119;48.288;8.726;2024-02-26T04:39:47;7.10;90.10
2226;DHT22;1119;48.288;8.726;2024-02-26T04:42:15;7.00;90.50
2226;DHT22;1119;48.288;8.726;2024-02-26T04:44:42;6.80;90.20
2226;DHT22;1119;48.288;8.726;2024-02-26T04:47:09;6.70;88.90
2226;DHT22;1119;48.288;8.726;2024-02-26T04:49:36;6.60;89.50
2226;DHT22;1119;48.288;8.726;2024-02-26T04:52:04;6.60;90.60
2226;DHT22;1119;48.288;8.726;2024-02-26T04:54:33;6.60;90.80
2226;DHT22;1119;48.288;8.726;2024-02-26T04:57:00;6.60;90.60
2226;DHT22;1119;48.288;8.726;2024-02-26T04:59:28;6.60;91.90
2226;DHT22;1119;48.288;8.726;2024-02-26T05:01:55;6.60;92.10
2226;DHT22;1119;48.288;8.726;2024-02-26T05:04:22;6.50;93.00
2226;DHT22;1119;48.288;8.726;2024-02-26T05:06:49;6.60;93.20
2226;DHT22;1119;48.288;8.726;2024-02-26T05:09:16;6.50;93.60
2226;DHT22;1119;48.288;8.726;2024-02-26T05:11:45;6.40;94.30
2226;DHT22;1119;48.288;8.726;2024-02-26T05:14:12;6.40;95.10
2226;DHT22;1119;48.288;8.726;2024-02-26T05:16:40;6.40;95.30
2226;DHT22;1119;48.288;8.726;2024-02-26T05:19:07;6.50;95.50
2226;DHT22;1119;48.288;8.726;2024-02-26T05:21:34;6.50;95.60
2226;DHT22;1119;48.288;8.726;2024-02-26T05:24:02;6.60;96.20
2226;DHT22;1119;48.288;8.726;2024-02-26T05:26:29;6.60;96.60
2226;DHT22;1119;48.288;8.726;2024-02-26T05:28:58;6.50;96.50
2226;DHT22;1119;48.288;8.726;2024-02-26T05:31:26;6.40;96.50
2226;DHT22;1119;48.288;8.726;2024-02-26T05:33:54;6.40;96.20
2226;DHT22;1119;48.288;8.726;2024-02-26T05:36:22;6.30;95.90
2226;DHT22;1119;48.288;8.726;2024-02-26T05:38:49;6.20;95.70
2226;DHT22;1119;48.288;8.726;2024-02-26T05:41:17;6.20;95.60
2226;DHT22;1119;48.288;8.726;2024-02-26T05:43:48;6.20;95.70
2226;DHT22;1119;48.288;8.726;2024-02-26T05:46:18;6.20;95.40
2226;DHT22;1119;48.288;8.726;2024-02-26T05:48:47;6.10;95.50
2226;DHT22;1119;48.288;8.726;2024-02-26T05:51:15;6.20;95.30
2226;DHT22;1119;48.288;8.726;2024-02-26T05:53:42;6.20;95.30
2226;DHT22;1119;48.288;8.726;2024-02-26T05:56:09;6.20;95.30
2226;DHT22;1119;48.288;8.726;2024-02-26T05:58:36;6.10;95.50
2226;DHT22;1119;48.288;8.726;2024-02-26T06:01:04;6.10;96.20
2226;DHT22;1119;48.288;8.726;2024-02-26T06:03:33;6.10;96.70
2226;DHT22;1119;48.288;8.726;2024-02-26T06:06:00;5.90;97.00
2226;DHT22;1119;48.288;8.726;2024-02-26T06:08:27;5.90;97.00
2226;DHT22;1119;48.288;8.726;2024-02-26T06:10:55;5.80;96.60
2226;DHT22;1119;48.288;8.726;2024-02-26T06:13:22;5.90;97.00
2226;DHT22;1119;48.288;8.726;2024-02-26T06:15:49;5.90;97.20
2226;DHT22;1119;48.288;8.726;2024-02-26T06:18:16;5.90;97.00
2226;DHT22;1119;48.288;8.726;2024-02-26T06:20:45;6.00;97.50
2226;DHT22;1119;48.288;8.726;2024-02-26T06:23:12;6.00;97.40
2226;DHT22;1119;48.288;8.726;2024-02-26T06:25:39;6.10;97.60
2226;DHT22;1119;48.288;8.726;2024-02-26T06:28:08;6.00;97.80
2226;DHT22;1119;48.288;8.726;2024-02-26T06:30:35;6.00;97.80
2226;DHT22;1119;48.288;8.726;2024-02-26T06:33:03;6.00;97.60
2226;DHT22;1119;48.288;8.726;2024-02-26T06:35:30;6.00;97.70
2226;DHT22;1119;48.288;8.726;2024-02-26T06:38:00;6.00;97.60
2226;DHT22;1119;48.288;8.726;2024-02-26T06:40:27;6.10;97.60
2226;DHT22;1119;48.288;8.726;2024-02-26T06:42:54;6.10;97.80
2226;DHT22;1119;48.288;8.726;2024-02-26T06:45:22;6.10;98.20
2226;DHT22;1119;48.288;8.726;2024-02-26T06:47:49;6.10;98.50
2226;DHT22;1119;48.288;8.726;2024-02-26T06:50:16;6.10;98.90
2226;DHT22;1119;48.288;8.726;2024-02-26T06:52:44;6.10;99.20
2226;DHT22;1119;48.288;8.726;2024-02-26T06:55:13;6.10;99.60
2226;DHT22;1119;48.288;8.726;2024-02-26T06:57:41;6.20;99.90
2226;DHT22;1119;48.288;8.726;2024-02-26T07:00:09;6.20;99.90
2226;DHT22;1119;48.288;8.726;2024-02-26T07:02:40;6.20;99.90
2226;DHT22;1119;48.288;8.726;2024-02-26T07:05:08;6.20;99.90
2226;DHT22;1119;48.288;8.726;2024-02-26T07:07:36;6.30;99.90
2226;DHT22;1119;48.288;8.726;2024-02-26T07:10:03;6.30;99.90
2226;DHT22;1119;48.288;8.726;2024-02-26T07:12:33;6.40;99.90
2226;DHT22;1119;48.288;8.726;2024-02-26T07:15:00;6.40;99.00
2226;DHT22;1119;48.288;8.726;2024-02-26T07:17:28;6.40;98.30
2226;DHT22;1119;48.288;8.726;2024-02-26T07:19:56;6.40;98.10
2226;DHT22;1119;48.288;8.726;2024-02-26T07:22:23;6.40;97.90
2226;DHT22;1119;48.288;8.726;2024-02-26T07:24:51;6.40;97.90
2226;DHT22;1119;48.288;8.726;2024-02-26T07:27:18;6.40;98.10
2226;DHT22;1119;48.288;8.726;2024-02-26T07:29:48;6.40;98.20
2226;DHT22;1119;48.288;8.726;2024-02-26T07:32:15;6.40;98.20
2226;DHT22;1119;48.288;8.726;2024-02-26T07:34:43;6.50;98.20
2226;DHT22;1119;48.288;8.726;2024-02-26T07:37:10;6.60;98.10
2226;DHT22;1119;48.288;8.726;2024-02-26T07:39:38;6.70;98.00
2226;DHT22;1119;48.288;8.726;2024-02-26T07:42:06;6.80;97.90
2226;DHT22;1119;48.288;8.726;2024-02-26T07:44:33;6.90;97.80
2226;DHT22;1119;48.288;8.726;2024-02-26T07:47:02;6.90;97.60
2226;DHT22;1119;48.288;8.726;2024-02-26T07:49:30;7.00;97.80
2226;DHT22;1119;48.288;8.726;2024-02-26T07:51:58;7.00;97.70
2226;DHT22;1119;48.288;8.726;2024-02-26T07:54:26;7.00;97.70
2226;DHT22;1119;48.288;8.726;2024-02-26T07:56:53;7.10;97.70
2226;DHT22;1119;48.288;8.726;2024-02-26T07:59:21;7.00;98.20
2226;DHT22;1119;48.288;8.726;2024-02-26T08:01:50;7.10;98.30
2226;DHT22;1119;48.288;8.726;2024-02-26T08:04:19;7.10;98.30
2226;DHT22;1119;48.288;8.726;2024-02-26T08:06:46;7.20;98.20
2226;DHT22;1119;48.288;8.726;2024-02-26T08:09:14;7.20;98.30
2226;DHT22;1119;48.288;8.726;2024-02-26T08:11:41;7.20;98.10
2226;DHT22;1119;48.288;8.726;2024-02-26T08:14:08;7.30;98.30
2226;DHT22;1119;48.288;8.726;2024-02-26T08:16:36;7.40;98.40
2226;DHT22;1119;48.288;8.726;2024-02-26T08:19:03;7.50;98.40
2226;DHT22;1119;48.288;8.726;2024-02-26T08:21:32;7.60;98.60
2226;DHT22;1119;48.288;8.726;2024-02-26T08:24:00;7.70;98.50
2226;DHT22;1119;48.288;8.726;2024-02-26T08:26:27;7.80;98.50
2226;DHT22;1119;48.288;8.726;2024-02-26T08:28:55;7.80;98.60
2226;DHT22;1119;48.288;8.726;2024-02-26T08:31:24;7.80;99.20
2226;DHT22;1119;48.288;8.726;2024-02-26T08:33:51;8.00;99.30
2226;DHT22;1119;48.288;8.726;2024-02-26T08:36:19;8.00;99.30
2226;DHT22;1119;48.288;8.726;2024-02-26T08:38:48;8.00;99.60
2226;DHT22;1119;48.288;8.726;2024-02-26T08:41:15;8.10;99.70
2226;DHT22;1119;48.288;8.726;2024-02-26T08:43:43;8.10;99.40
2226;DHT22;1119;48.288;8.726;2024-02-26T08:46:12;8.20;99.00
2226;DHT22;1119;48.288;8.726;2024-02-26T08:48:40;8.30;98.60
2226;DHT22;1119;48.288;8.726;2024-02-26T08:51:08;8.40;98.30
2226;DHT22;1119;48.288;8.726;2024-02-26T08:53:36;8.40;98.10
2226;DHT22;1119;48.288;8.726;2024-02-26T08:56:06;8.30;99.90
2226;DHT22;1119;48.288;8.726;2024-02-26T08:58:33;8.10;99.90
2226;DHT22;1119;48.288;8.726;2024-02-26T09:01:02;8.00;99.90
2226;DHT22;1119;48.288;8.726;2024-02-26T09:03:29;8.00;99.90
2226;DHT22;1119;48.288;8.726;2024-02-26T09:05:57;8.00;99.90
2226;DHT22;1119;48.288;8.726;2024-02-26T09:08:24;8.00;99.90
2226;DHT22;1119;48.288;8.726;2024-02-26T09:10:52;8.00;99.90
2226;DHT22;1119;48.288;8.726;2024-02-26T09:13:21;8.20;99.80
2226;DHT22;1119;48.288;8.726;2024-02-26T09:15:49;8.40;99.90
2226;DHT22;1119;48.288;8.726;2024-02-26T09:18:16;8.50;99.70
2226;DHT22;1119;48.288;8.726;2024-02-26T09:20:44;8.60;99.60
2226;DHT22;1119;48.288;8.726;2024-02-26T09:23:11;8.80;99.00
2226;DHT22;1119;48.288;8.726;2024-02-26T09:25:39;9.30;98.40
2226;DHT22;1119;48.288;8.726;2024-02-26T09:28:06;9.80;96.20
2226;DHT22;1119;48.288;8.726;2024-02-26T09:30:35;10.10;94.00
2226;DHT22;1119;48.288;8.726;2024-02-26T09:33:04;10.30;92.90
2226;DHT22;1119;48.288;8.726;2024-02-26T09:35:32;10.30;93.20
2226;DHT22;1119;48.288;8.726;2024-02-26T09:37:59;10.50;93.50
2226;DHT22;1119;48.288;8.726;2024-02-26T09:40:27;10.50;93.10
2226;DHT22;1119;48.288;8.726;2024-02-26T09:42:59;10.60;93.80
2226;DHT22;1119;48.288;8.726;2024-02-26T09:45:28;10.70;93.70
2226;DHT22;1119;48.288;8.726;2024-02-26T09:47:59;10.50;93.50
2226;DHT22;1119;48.288;8.726;2024-02-26T09:50:27;10.50;94.10
2226;DHT22;1119;48.288;8.726;2024-02-26T09:52:56;10.40;93.60
2226;DHT22;1119;48.288;8.726;2024-02-26T09:55:25;10.30;93.60
2226;DHT22;1119;48.288;8.726;2024-02-26T09:57:53;10.10;94.20
2226;DHT22;1119;48.288;8.726;2024-02-26T10:00:21;10.00;94.40
2226;DHT22;1119;48.288;8.726;2024-02-26T10:02:49;10.00;95.00
2226;DHT22;1119;48.288;8.726;2024-02-26T10:05:19;10.00;95.30
2226;DHT22;1119;48.288;8.726;2024-02-26T10:07:47;9.90;95.90
2226;DHT22;1119;48.288;8.726;2024-02-26T10:10:15;9.80;95.60
2226;DHT22;1119;48.288;8.726;2024-02-26T10:12:44;9.70;95.80
2226;DHT22;1119;48.288;8.726;2024-02-26T10:15:11;9.70;96.40
2226;DHT22;1119;48.288;8.726;2024-02-26T10:17:39;9.60;96.40
2226;DHT22;1119;48.288;8.726;2024-02-26T10:20:12;9.50;96.70
2226;DHT22;1119;48.288;8.726;2024-02-26T10:22:43;9.40;97.50
2226;DHT22;1119;48.288;8.726;2024-02-26T10:25:10;9.30;96.90
2226;DHT22;1119;48.288;8.726;2024-02-26T10:27:40;9.20;97.30
2226;DHT22;1119;48.288;8.726;2024-02-26T10:30:16;9.20;98.30
2226;DHT22;1119;48.288;8.726;2024-02-26T10:32:45;9.20;98.30
2226;DHT22;1119;48.288;8.726;2024-02-26T10:35:13;9.20;98.20
2226;DHT22;1119;48.288;8.726;2024-02-26T10:37:43;9.20;99.10
2226;DHT22;1119;48.288;8.726;2024-02-26T10:40:11;9.20;99.40
2226;DHT22;1119;48.288;8.726;2024-02-26T10:42:38;9.30;99.80
2226;DHT22;1119;48.288;8.726;2024-02-26T10:45:07;9.20;99.70
2226;DHT22;1119;48.288;8.726;2024-02-26T10:47:36;9.20;99.90
2226;DHT22;1119;48.288;8.726;2024-02-26T10:50:05;9.20;99.90
2226;DHT22;1119;48.288;8.726;2024-02-26T10:52:34;9.30;99.90
2226;DHT22;1119;48.288;8.726;2024-02-26T10:55:04;9.30;99.90
2226;DHT22;1119;48.288;8.726;2024-02-26T10:57:36;9.40;99.90
2226;DHT22;1119;48.288;8.726;2024-02-26T11:00:06;9.30;99.90
2226;DHT22;1119;48.288;8.726;2024-02-26T11:02:36;9.40;99.90
2226;DHT22;1119;48.288;8.726;2024-02-26T11:05:04;9.40;99.90
2226;DHT22;1119;48.288;8.726;2024-02-26T11:07:34;9.40;99.90
2226;DHT22;1119;48.288;8.726;2024-02-26T11:10:05;9.40;99.60
2226;DHT22;1119;48.288;8.726;2024-02-26T11:12:35;9.30;99.20
2226;DHT22;1119;48.288;8.726;2024-02-26T11:15:04;9.40;99.50
2226;DHT22;1119;48.288;8.726;2024-02-26T11:17:32;9.40;98.50
2226;DHT22;1119;48.288;8.726;2024-02-26T11:20:00;9.40;98.90
2226;DHT22;1119;48.288;8.726;2024-02-26T11:22:29;9.50;99.60
2226;DHT22;1119;48.288;8.726;2024-02-26T11:24:57;9.50;99.90
2226;DHT22;1119;48.288;8.726;2024-02-26T11:27:30;9.60;99.90
2226;DHT22;1119;48.288;8.726;2024-02-26T11:30:03;9.80;99.90
2226;DHT22;1119;48.288;8.726;2024-02-26T11:32:32;9.90;99.90
2226;DHT22;1119;48.288;8.726;2024-02-26T11:35:01;10.00;99.00
2226;DHT22;1119;48.288;8.726;2024-02-26T11:37:29;10.10;98.70
2226;DHT22;1119;48.288;8.726;2024-02-26T11:39:59;10.00;98.20
2226;DHT22;1119;48.288;8.726;2024-02-26T11:42:28;9.90;99.00
2226;DHT22;1119;48.288;8.726;2024-02-26T11:44:56;9.90;99.20
2226;DHT22;1119;48.288;8.726;2024-02-26T11:47:27;9.90;99.50
2226;DHT22;1119;48.288;8.726;2024-02-26T11:49:54;10.00;98.80
2226;DHT22;1119;48.288;8.726;2024-02-26T11:52:22;10.00;98.20
2226;DHT22;1119;48.288;8.726;2024-02-26T11:54:51;10.00;98.10
2226;DHT22;1119;48.288;8.726;2024-02-26T11:57:27;10.00;98.20
2226;DHT22;1119;48.288;8.726;2024-02-26T11:59:56;10.00;98.50
2226;DHT22;1119;48.288;8.726;2024-02-26T12:02:43;10.00;98.40
2226;DHT22;1119;48.288;8.726;2024-02-26T12:05:14;10.10;98.80
2226;DHT22;1119;48.288;8.726;2024-02-26T12:07:46;10.10;98.70
2226;DHT22;1119;48.288;8.726;2024-02-26T12:10:23;10.20;99.10
2226;DHT22;1119;48.288;8.726;2024-02-26T12:12:58;10.30;99.20
2226;DHT22;1119;48.288;8.726;2024-02-26T12:15:31;10.30;99.70
2226;DHT22;1119;48.288;8.726;2024-02-26T12:18:01;10.40;98.90
2226;DHT22;1119;48.288;8.726;2024-02-26T12:20:29;10.30;99.00
2226;DHT22;1119;48.288;8.726;2024-02-26T12:22:57;10.20;99.50
2226;DHT22;1119;48.288;8.726;2024-02-26T12:25:26;10.10;99.80
2226;DHT22;1119;48.288;8.726;2024-02-26T12:27:56;10.20;99.90
2226;DHT22;1119;48.288;8.726;2024-02-26T12:30:24;10.10;99.90
2226;DHT22;1119;48.288;8.726;2024-02-26T12:33:00;10.20;99.90
2226;DHT22;1119;48.288;8.726;2024-02-26T12:35:28;10.20;99.90
2226;DHT22;1119;48.288;8.726;2024-02-26T12:37:58;10.30;99.80
2226;DHT22;1119;48.288;8.726;2024-02-26T12:40:25;10.30;99.90
2226;DHT22;1119;48.288;8.726;2024-02-26T12:42:54;10.40;99.90
2226;DHT22;1119;48.288;8.726;2024-02-26T12:45:23;10.50;99.90
2226;DHT22;1119;48.288;8.726;2024-02-26T12:47:53;10.70;99.70
2226;DHT22;1119;48.288;8.726;2024-02-26T12:50:20;10.80;98.80
2226;DHT22;1119;48.288;8.726;2024-02-26T12:52:48;10.80;98.10
2226;DHT22;1119;48.288;8.726;2024-02-26T12:55:18;10.90;98.50
2226;DHT22;1119;48.288;8.726;2024-02-26T12:57:47;11.00;97.10
2226;DHT22;1119;48.288;8.726;2024-02-26T13:00:18;11.00;96.60
2226;DHT22;1119;48.288;8.726;2024-02-26T13:02:49;11.00;96.80
2226;DHT22;1119;48.288;8.726;2024-02-26T13:05:18;11.10;96.80
2226;DHT22;1119;48.288;8.726;2024-02-26T13:07:47;11.10;96.00
2226;DHT22;1119;48.288;8.726;2024-02-26T13:10:14;11.10;94.70
2226;DHT22;1119;48.288;8.726;2024-02-26T13:12:43;11.10;94.70
2226;DHT22;1119;48.288;8.726;2024-02-26T13:15:15;11.10;94.90
2226;DHT22;1119;48.288;8.726;2024-02-26T13:17:43;11.10;95.60
2226;DHT22;1119;48.288;8.726;2024-02-26T13:20:13;11.20;94.80
2226;DHT22;1119;48.288;8.726;2024-02-26T13:23:00;11.40;94.60
2226;DHT22;1119;48.288;8.726;2024-02-26T13:25:28;11.50;95.60
2226;DHT22;1119;48.288;8.726;2024-02-26T13:28:07;11.60;94.60
2226;DHT22;1119;48.288;8.726;2024-02-26T13:30:36;11.60;95.20
2226;DHT22;1119;48.288;8.726;2024-02-26T13:33:13;11.70;94.20
2226;DHT22;1119;48.288;8.726;2024-02-26T13:35:42;11.70;93.90
2226;DHT22;1119;48.288;8.726;2024-02-26T13:38:10;11.70;94.50
2226;DHT22;1119;48.288;8.726;2024-02-26T13:40:38;11.60;94.30
2226;DHT22;1119;48.288;8.726;2024-02-26T13:43:06;11.40;94.40
2226;DHT22;1119;48.288;8.726;2024-02-26T13:45:34;11.30;94.40
2226;DHT22;1119;48.288;8.726;2024-02-26T13:48:07;11.30;94.70
2226;DHT22;1119;48.288;8.726;2024-02-26T13:50:36;11.40;95.40
2226;DHT22;1119;48.288;8.726;2024-02-26T13:53:05;11.20;94.90
2226;DHT22;1119;48.288;8.726;2024-02-26T13:55:32;11.20;95.40
2226;DHT22;1119;48.288;8.726;2024-02-26T13:58:00;11.10;94.60
2226;DHT22;1119;48.288;8.726;2024-02-26T14:00:28;11.10;94.50
2226;DHT22;1119;48.288;8.726;2024-02-26T14:02:58;11.00;94.50
2226;DHT22;1119;48.288;8.726;2024-02-26T14:05:25;11.10;95.20
2226;DHT22;1119;48.288;8.726;2024-02-26T14:07:53;11.00;94.60
2226;DHT22;1119;48.288;8.726;2024-02-26T14:10:22;11.00;94.50
2226;DHT22;1119;48.288;8.726;2024-02-26T14:12:49;11.00;93.10
2226;DHT22;1119;48.288;8.726;2024-02-26T14:15:17;11.00;93.90
2226;DHT22;1119;48.288;8.726;2024-02-26T14:17:44;11.00;93.90
2226;DHT22;1119;48.288;8.726;2024-02-26T14:20:19;11.00;93.90
2226;DHT22;1119;48.288;8.726;2024-02-26T14:22:47;11.10;94.10
2226;DHT22;1119;48.288;8.726;2024-02-26T14:25:15;11.10;93.10
2226;DHT22;1119;48.288;8.726;2024-02-26T14:27:44;11.00;92.60
2226;DHT22;1119;48.288;8.726;2024-02-26T14:30:12;10.90;92.90
2226;DHT22;1119;48.288;8.726;2024-02-26T14:32:39;10.80;92.70
2226;DHT22;1119;48.288;8.726;2024-02-26T14:35:08;10.80;92.80
2226;DHT22;1119;48.288;8.726;2024-02-26T14:37:36;10.80;92.90
2226;DHT22;1119;48.288;8.726;2024-02-26T14:40:04;10.80;93.60
2226;DHT22;1119;48.288;8.726;2024-02-26T14:42:32;10.90;93.40
2226;DHT22;1119;48.288;8.726;2024-02-26T14:45:01;10.80;93.00
2226;DHT22;1119;48.288;8.726;2024-02-26T14:47:30;10.80;93.40
2226;DHT22;1119;48.288;8.726;2024-02-26T14:49:58;10.80;93.30
2226;DHT22;1119;48.288;8.726;2024-02-26T14:52:25;10.80;93.00
2226;DHT22;1119;48.288;8.726;2024-02-26T14:54:53;10.70;92.90
2226;DHT22;1119;48.288;8.726;2024-02-26T14:57:20;10.70;93.20
2226;DHT22;1119;48.288;8.726;2024-02-26T14:59:48;10.60;93.30
2226;DHT22;1119;48.288;8.726;2024-02-26T15:02:17;10.60;93.80
2226;DHT22;1119;48.288;8.726;2024-02-26T15:04:45;10.70;93.60
2226;DHT22;1119;48.288;8.726;2024-02-26T15:07:12;10.70;93.60
2226;DHT22;1119;48.288;8.726;2024-02-26T15:09:40;10.70;93.30
2226;DHT22;1119;48.288;8.726;2024-02-26T15:12:07;10.60;93.10
2226;DHT22;1119;48.288;8.726;2024-02-26T15:14:35;10.60;93.10
2226;DHT22;1119;48.288;8.726;2024-02-26T15:17:03;10.60;93.30
2226;DHT22;1119;48.288;8.726;2024-02-26T15:19:31;10.60;93.30
2226;DHT22;1119;48.288;8.726;2024-02-26T15:21:59;10.50;93.40
2226;DHT22;1119;48.288;8.726;2024-02-26T15:24:26;10.50;93.40
2226;DHT22;1119;48.288;8.726;2024-02-26T15:26:54;10.50;93.50
2226;DHT22;1119;48.288;8.726;2024-02-26T15:29:21;10.50;93.70
2226;DHT22;1119;48.288;8.726;2024-02-26T15:31:48;10.50;93.70
2226;DHT22;1119;48.288;8.726;2024-02-26T15:34:16;10.50;93.40
2226;DHT22;1119;48.288;8.726;2024-02-26T15:36:44;10.50;93.90
2226;DHT22;1119;48.288;8.726;2024-02-26T15:39:12;10.50;93.80
2226;DHT22;1119;48.288;8.726;2024-02-26T15:41:40;10.50;93.90
2226;DHT22;1119;48.288;8.726;2024-02-26T15:44:07;10.50;93.90
2226;DHT22;1119;48.288;8.726;2024-02-26T15:46:39;10.50;94.00
2226;DHT22;1119;48.288;8.726;2024-02-26T15:49:07;10.50;94.10
2226;DHT22;1119;48.288;8.726;2024-02-26T15:51:34;10.50;94.10
2226;DHT22;1119;48.288;8.726;2024-02-26T15:54:03;10.50;94.00
2226;DHT22;1119;48.288;8.726;2024-02-26T15:56:31;10.50;94.00
2226;DHT22;1119;48.288;8.726;2024-02-26T15:58:58;10.50;94.10
2226;DHT22;1119;48.288;8.726;2024-02-26T16:01:25;10.50;94.10
2226;DHT22;1119;48.288;8.726;2024-02-26T16:03:53;10.50;94.20
2226;DHT22;1119;48.288;8.726;2024-02-26T16:06:25;10.50;94.10
2226;DHT22;1119;48.288;8.726;2024-02-26T16:08:56;10.40;94.20
2226;DHT22;1119;48.288;8.726;2024-02-26T16:11:24;10.40;94.30
2226;DHT22;1119;48.288;8.726;2024-02-26T16:13:56;10.40;94.30
2226;DHT22;1119;48.288;8.726;2024-02-26T16:16:29;10.40;94.20
2226;DHT22;1119;48.288;8.726;2024-02-26T16:19:05;10.40;94.30